Time;durP1;ratioP1;P1;durP2;ratioP2;P2;SDS_P1;SDS_P2;PMS_P1;PMS_P2;Temp;Humidity;BMP_temperature;BMP_pressure;BME280_temperature;BME280_humidity;BME280_pressure;Samples;Min_cycle;Max_cycle;Signal;HPM_P1;HPM_P2
2022/11/19 00:00:23;;;;;;;5.20;3.83;;;;;;;18.49;49.80;100897.66;5023263;28;20013;-51
2022/11/19 00:02:52;;;;;;;4.70;3.75;;;;;;;18.50;49.64;100901.16;5025042;28;20108;-53
2022/11/19 00:05:17;;;;;;;9.00;4.38;;;;;;;18.49;49.85;100905.72;5024407;28;20375;-51
2022/11/19 00:07:43;;;;;;;4.55;3.70;;;;;;;18.49;49.63;100916.50;5025119;28;20442;-54
2022/11/19 00:10:08;;;;;;;4.95;3.95;;;;;;;18.47;49.79;100909.56;5024753;28;20112;-50
2022/11/19 00:15:17;;;;;;;4.03;3.63;;;;;;;18.07;49.47;100845.75;5024953;28;20053;-52
2022/11/19 00:17:42;;;;;;;4.55;4.05;;;;;;;18.44;49.51;100909.94;5024689;28;20030;-54
2022/11/19 00:20:08;;;;;;;4.13;3.42;;;;;;;18.42;49.72;100918.16;5024446;28;20096;-56
2022/11/19 00:22:33;;;;;;;4.20;3.75;;;;;;;18.42;49.63;100920.84;5024124;28;20054;-54
2022/11/19 00:24:58;;;;;;;4.93;4.25;;;;;;;18.42;49.52;100928.06;5023266;28;20049;-52
2022/11/19 00:27:23;;;;;;;5.68;4.40;;;;;;;18.40;49.85;100928.25;5024700;28;20052;-53
2022/11/19 00:29:49;;;;;;;4.40;3.70;;;;;;;18.40;49.52;100930.09;5024937;28;20025;-50
2022/11/19 00:32:14;;;;;;;7.45;3.80;;;;;;;18.38;49.73;100934.78;5024733;28;20542;-51
2022/11/19 00:34:39;;;;;;;5.03;4.22;;;;;;;18.32;49.78;100922.00;5024628;28;20490;-50
2022/11/19 00:37:04;;;;;;;4.03;3.50;;;;;;;18.36;49.51;100936.81;5024101;28;20108;-53
2022/11/19 00:39:30;;;;;;;4.97;4.00;;;;;;;18.35;49.47;100944.06;5024790;28;20041;-54
2022/11/19 00:41:55;;;;;;;4.85;3.88;;;;;;;18.35;49.73;100945.88;5024764;28;20022;-55
2022/11/19 00:44:20;;;;;;;4.35;3.65;;;;;;;18.33;49.65;100948.75;5024500;28;20041;-51
2022/11/19 00:46:45;;;;;;;4.32;3.90;;;;;;;18.33;49.22;100947.91;5023737;28;20036;-54
2022/11/19 00:49:10;;;;;;;5.50;4.30;;;;;;;18.24;49.17;100947.88;5024287;28;20025;-54
2022/11/19 00:51:36;;;;;;;4.00;3.45;;;;;;;18.30;49.37;100962.53;5022827;28;20037;-50
2022/11/19 00:54:01;;;;;;;6.30;4.35;;;;;;;18.07;49.59;100927.31;5024164;28;20036;-50
2022/11/19 00:56:27;;;;;;;4.88;4.18;;;;;;;18.29;49.33;100968.09;5024397;28;20065;-55
2022/11/19 00:58:53;;;;;;;5.28;3.97;;;;;;;18.28;49.39;100966.41;5023862;28;20058;-51
2022/11/19 01:01:21;;;;;;;4.65;3.78;;;;;;;18.27;49.47;100968.25;5023643;28;20017;-55
2022/11/19 01:03:46;;;;;;;4.53;4.13;;;;;;;18.27;49.55;100972.81;5023909;28;20034;-55
2022/11/19 01:06:13;;;;;;;4.63;3.85;;;;;;;18.25;49.36;100972.94;5023688;28;20030;-54
2022/11/19 01:08:38;;;;;;;4.03;3.60;;;;;;;18.24;49.20;100979.34;5023921;28;20067;-54
2022/11/19 01:11:06;;;;;;;5.20;4.43;;;;;;;18.23;49.58;100977.66;5022928;28;20030;-52
2022/11/19 01:13:34;;;;;;;4.50;3.85;;;;;;;18.23;49.34;100988.44;5023014;28;20471;-53
2022/11/19 01:16:00;;;;;;;5.37;3.90;;;;;;;18.23;49.17;100993.81;5024056;28;20030;-54
2022/11/19 01:18:26;;;;;;;4.68;4.00;;;;;;;18.20;49.42;100997.66;5005836;28;20097;-58
2022/11/19 01:20:52;;;;;;;5.00;4.18;;;;;;;18.20;49.58;100996.81;5022953;28;20093;-59
2022/11/19 01:23:17;;;;;;;4.53;3.83;;;;;;;18.15;49.65;100994.63;5023171;28;20046;-52
2022/11/19 01:25:43;;;;;;;4.50;4.10;;;;;;;18.18;49.28;101002.38;5022946;28;20108;-52
2022/11/19 01:28:08;;;;;;;4.70;3.90;;;;;;;18.18;49.60;101006.88;5024065;28;20081;-53
2022/11/19 01:30:34;;;;;;;4.40;4.00;;;;;;;18.18;49.28;101009.56;5023461;28;20026;-54
2022/11/19 01:32:59;;;;;;;5.32;4.00;;;;;;;18.10;49.27;101007.72;5023477;28;20058;-52
2022/11/19 01:35:24;;;;;;;5.90;4.00;;;;;;;18.15;49.62;101010.75;5022263;28;20022;-47
2022/11/19 01:37:50;;;;;;;4.70;4.22;;;;;;;18.15;49.35;101009.91;5022477;28;21117;-51
2022/11/19 01:40:15;;;;;;;4.10;3.53;;;;;;;18.13;49.47;101010.06;5023074;28;20040;-55
2022/11/19 01:42:50;;;;;;;5.30;4.05;;;;;;;18.12;49.45;101008.38;5023332;28;20052;-53
2022/11/19 01:45:47;;;;;;;4.70;4.15;;;;;;;18.12;49.55;101026.38;5023204;28;20034;-51
2022/11/19 01:48:20;;;;;;;4.13;3.72;;;;;;;18.10;49.40;101018.47;5023408;28;20022;-51
2022/11/19 01:50:52;;;;;;;4.40;3.78;;;;;;;18.11;49.51;101024.69;5021651;28;20061;-54
2022/11/19 01:53:19;;;;;;;4.03;3.60;;;;;;;18.09;49.46;101024.00;5005154;28;20666;-51
2022/11/19 01:55:45;;;;;;;4.50;4.00;;;;;;;18.09;49.42;101021.31;5005605;28;20029;-53
2022/11/19 01:58:14;;;;;;;4.32;3.92;;;;;;;18.07;49.15;101023.31;5023152;28;20036;-52
2022/11/19 02:00:39;;;;;;;4.93;3.83;;;;;;;18.06;49.39;101027.03;5005214;28;20026;-55
2022/11/19 02:03:04;;;;;;;5.63;3.95;;;;;;;18.05;49.34;101030.69;5022837;28;20026;-52
2022/11/19 02:05:30;;;;;;;4.60;3.97;;;;;;;17.92;49.21;101013.16;5005112;28;20026;-55
2022/11/19 02:07:57;;;;;;;4.55;3.97;;;;;;;18.03;49.10;101025.50;5005296;28;20028;-52
2022/11/19 02:10:40;;;;;;;4.85;4.30;;;;;;;18.03;49.28;101030.03;5022418;28;20028;-54
2022/11/19 02:13:29;;;;;;;4.15;3.75;;;;;;;17.81;49.19;100999.16;5005452;28;20056;-52
2022/11/19 02:16:03;;;;;;;4.75;3.92;;;;;;;18.01;49.45;101034.72;5022822;28;20029;-54
2022/11/19 02:18:52;;;;;;;4.45;3.92;;;;;;;17.99;49.38;101035.72;5004896;28;20048;-53
2022/11/19 02:21:26;;;;;;;4.05;3.65;;;;;;;17.98;49.24;101036.72;5021999;28;20034;-56
2022/11/19 02:24:15;;;;;;;4.88;4.05;;;;;;;17.98;49.17;101030.50;5022920;28;20130;-53
2022/11/19 02:26:59;;;;;;;4.38;3.97;;;;;;;17.97;49.28;101031.53;5004835;28;20030;-53
2022/11/19 02:29:30;;;;;;;5.80;4.43;;;;;;;17.96;49.13;101030.66;5022634;28;20033;-54
2022/11/19 02:32:02;;;;;;;4.80;3.70;;;;;;;17.95;49.32;101039.72;5022390;28;20102;-53
2022/11/19 02:34:37;;;;;;;4.28;3.70;;;;;;;17.89;49.09;101026.94;5022650;28;20105;-52
2022/11/19 02:37:10;;;;;;;4.65;4.10;;;;;;;17.85;49.00;101022.88;4985190;28;20026;-54
2022/11/19 02:39:39;;;;;;;4.40;3.97;;;;;;;17.94;49.16;101045.28;4985879;28;20022;-53
2022/11/19 02:42:57;;;;;;;4.35;3.72;;;;;;;17.92;49.23;101048.13;5001877;28;20077;-54
2022/11/19 02:45:27;;;;;;;4.43;4.00;;;;;;;17.93;49.14;101047.13;4866940;29;20041;-55
2022/11/19 02:47:57;;;;;;;4.72;4.30;;;;;;;17.91;49.25;101043.75;4853235;29;20834;-50
2022/11/19 02:50:26;;;;;;;4.15;3.75;;;;;;;17.84;49.17;101036.47;4870764;29;20060;-51
2022/11/19 02:52:53;;;;;;;4.38;3.97;;;;;;;17.90;49.09;101046.59;4855380;29;20048;-51
2022/11/19 02:55:19;;;;;;;3.67;3.38;;;;;;;17.89;49.07;101047.63;4870886;29;20052;-53
2022/11/19 02:57:53;;;;;;;4.30;3.90;;;;;;;17.88;49.00;101049.47;4871305;29;20053;-54
2022/11/19 03:06:01;;;;;;;4.57;4.05;;;;;;;17.87;48.92;101055.81;4857110;29;20071;-53
2022/11/19 03:08:26;;;;;;;4.38;3.95;;;;;;;17.86;49.13;101047.91;4850830;29;20135;-51
2022/11/19 03:11:05;;;;;;;5.57;4.55;;;;;;;17.72;49.09;101025.94;4889174;29;20105;-56
2022/11/19 03:16:40;;;;;;;4.93;3.83;;;;;;;17.85;49.09;101048.94;4889060;29;20048;-51
2022/11/19 03:19:36;;;;;;;5.20;4.07;;;;;;;17.84;49.06;101049.91;4875646;29;20041;-52
2022/11/19 03:22:09;;;;;;;4.55;3.90;;;;;;;17.83;48.97;101043.69;4952800;28;20049;-54
2022/11/19 03:24:39;;;;;;;4.30;3.90;;;;;;;17.82;48.89;101047.38;5007983;28;20096;-54
2022/11/19 03:27:14;;;;;;;4.20;3.80;;;;;;;17.78;48.96;101039.78;5008140;28;20033;-52
2022/11/19 03:29:42;;;;;;;4.15;3.75;;;;;;;17.74;49.20;101032.03;4992140;28;20100;-54
2022/11/19 03:32:13;;;;;;;4.78;3.97;;;;;;;17.80;49.09;101046.72;5007934;28;20054;-52
2022/11/19 03:34:40;;;;;;;4.45;3.72;;;;;;;17.81;48.73;101055.63;5007929;28;20530;-54
2022/11/19 03:37:06;;;;;;;5.30;4.00;;;;;;;17.80;48.91;101053.91;5025316;28;20032;-53
2022/11/19 03:39:34;;;;;;;5.18;4.65;;;;;;;17.74;48.87;101063.47;5008192;28;20045;-52
2022/11/19 03:41:59;;;;;;;5.07;4.43;;;;;;;17.79;49.12;101063.84;5008017;28;20099;-53
2022/11/19 03:44:38;;;;;;;3.97;3.58;;;;;;;17.79;48.96;101058.44;5025339;28;20475;-55
2022/11/19 03:47:11;;;;;;;4.57;4.18;;;;;;;17.78;48.81;101069.38;5007880;28;20033;-54
2022/11/19 03:49:41;;;;;;;4.25;3.72;;;;;;;17.77;48.96;101065.84;5007964;28;20033;-54
2022/11/19 03:52:12;;;;;;;4.32;3.80;;;;;;;17.77;48.94;101070.38;5024766;28;20030;-54
2022/11/19 03:54:38;;;;;;;5.53;4.45;;;;;;;17.72;49.20;101068.13;5024614;28;20033;-55
2022/11/19 03:57:05;;;;;;;5.28;3.80;;;;;;;17.63;49.01;101047.56;5025234;28;20029;-54
2022/11/19 03:59:31;;;;;;;3.97;3.60;;;;;;;17.75;49.02;101075.91;5007358;28;20061;-51
2022/11/19 04:01:59;;;;;;;4.45;4.05;;;;;;;17.75;49.12;101075.91;5025254;28;20037;-53
2022/11/19 04:04:37;;;;;;;4.20;3.80;;;;;;;17.72;48.84;101079.75;5007404;28;20022;-54
2022/11/19 04:07:07;;;;;;;4.20;3.80;;;;;;;17.72;48.94;101087.81;5006778;28;20026;-53
2022/11/19 04:09:33;;;;;;;4.53;3.88;;;;;;;17.72;48.89;101087.81;5025429;28;20030;-53
2022/11/19 04:11:58;;;;;;;4.00;3.60;;;;;;;17.71;48.88;101086.13;5024939;28;20468;-54
2022/11/19 04:14:24;;;;;;;4.28;3.85;;;;;;;17.70;48.75;101087.09;5024957;28;20030;-55
2022/11/19 04:16:49;;;;;;;4.15;3.75;;;;;;;17.70;48.69;101089.78;5024989;28;20045;-55
2022/11/19 04:19:16;;;;;;;4.15;3.75;;;;;;;17.29;48.67;101034.88;5007165;28;20395;-55
2022/11/19 04:21:41;;;;;;;5.05;4.15;;;;;;;17.71;48.72;101109.44;5024582;28;20072;-52
2022/11/19 04:24:07;;;;;;;4.35;3.95;;;;;;;17.71;48.78;101104.94;5024872;28;20030;-54
2022/11/19 04:26:32;;;;;;;3.85;3.42;;;;;;;17.70;48.94;101105.91;5025284;28;20732;-55
2022/11/19 04:28:57;;;;;;;3.90;3.60;;;;;;;17.69;48.81;101106.94;5025045;28;20041;-52
2022/11/19 04:31:22;;;;;;;3.92;3.42;;;;;;;17.70;48.75;101114.00;5024462;28;20077;-53
2022/11/19 04:33:48;;;;;;;4.03;3.67;;;;;;;17.69;48.42;101117.69;5024344;28;20164;-55
2022/11/19 04:36:13;;;;;;;4.40;4.00;;;;;;;17.69;48.78;101117.69;5023920;28;20088;-56
2022/11/19 04:38:38;;;;;;;3.97;3.67;;;;;;;17.65;48.60;101120.84;5024271;28;20029;-53
2022/11/19 04:41:04;;;;;;;4.10;3.60;;;;;;;17.67;48.79;101125.06;5007031;28;20030;-53
2022/11/19 04:43:29;;;;;;;3.63;3.33;;;;;;;17.69;48.79;101133.81;5024270;28;20026;-53
2022/11/19 04:45:54;;;;;;;4.93;4.10;;;;;;;17.68;48.38;101131.31;5024579;28;20514;-54
2022/11/19 04:48:19;;;;;;;4.20;3.75;;;;;;;17.67;48.64;101127.78;5023957;28;20030;-54
2022/11/19 04:50:45;;;;;;;3.75;3.35;;;;;;;17.68;48.47;101131.31;5024237;28;20072;-50
2022/11/19 04:53:10;;;;;;;4.53;4.03;;;;;;;17.67;48.85;101132.28;5023736;28;20022;-54
2022/11/19 04:55:35;;;;;;;3.65;3.33;;;;;;;17.66;48.68;101130.59;5024362;28;20029;-54
2022/11/19 04:58:01;;;;;;;5.18;3.70;;;;;;;17.67;48.51;101129.59;5023866;28;20052;-53
2022/11/19 05:00:26;;;;;;;5.47;4.20;;;;;;;17.67;48.46;101141.22;5006397;28;20057;-54
2022/11/19 05:02:51;;;;;;;4.10;3.70;;;;;;;17.66;48.48;101130.59;5023904;28;20089;-52
2022/11/19 05:05:16;;;;;;;4.65;4.00;;;;;;;17.67;48.49;101138.53;5023945;28;20021;-52
2022/11/19 05:07:42;;;;;;;3.90;3.50;;;;;;;17.66;48.74;101139.50;5023314;28;20197;-53
2022/11/19 05:10:07;;;;;;;4.25;3.83;;;;;;;17.39;48.61;101093.91;5023521;28;20120;-54
2022/11/19 05:12:32;;;;;;;4.55;3.90;;;;;;;17.67;48.49;101148.41;5023603;28;20144;-55
2022/11/19 05:14:58;;;;;;;4.50;4.10;;;;;;;17.64;48.59;101137.97;5023622;28;20053;-51
2022/11/19 05:17:23;;;;;;;4.53;3.88;;;;;;;17.67;48.71;101143.91;5023297;28;20085;-53
2022/11/19 05:19:48;;;;;;;4.05;3.75;;;;;;;17.60;48.85;101133.91;5024220;28;20080;-51
2022/11/19 05:22:13;;;;;;;4.90;4.43;;;;;;;17.64;48.12;101136.13;5022768;28;20057;-53
2022/11/19 05:24:39;;;;;;;4.22;3.83;;;;;;;17.62;48.54;101142.66;5023689;28;20038;-54
2022/11/19 05:27:04;;;;;;;4.20;3.80;;;;;;;17.66;48.53;101152.94;5023526;28;20029;-55
2022/11/19 05:29:29;;;;;;;4.13;3.63;;;;;;;17.67;48.17;101148.41;5023030;28;20044;-52
2022/11/19 05:31:54;;;;;;;4.00;3.50;;;;;;;17.65;48.35;101153.09;5023468;28;20034;-53
2022/11/19 05:34:20;;;;;;;4.07;3.78;;;;;;;17.63;48.26;101155.97;5023506;28;20029;-54
2022/11/19 05:36:45;;;;;;;3.75;3.45;;;;;;;17.67;48.21;101165.41;5022885;28;20033;-51
2022/11/19 05:39:10;;;;;;;4.65;4.25;;;;;;;17.68;48.37;101166.25;5023634;28;20061;-55
2022/11/19 05:41:35;;;;;;;4.35;3.80;;;;;;;17.67;48.47;101164.53;5023723;28;20040;-53
2022/11/19 05:44:01;;;;;;;3.97;3.58;;;;;;;17.67;48.21;101172.59;5023294;28;20053;-50
2022/11/19 05:46:26;;;;;;;3.70;3.38;;;;;;;17.60;48.52;101158.13;5023078;28;20579;-52
2022/11/19 05:48:51;;;;;;;4.00;3.63;;;;;;;17.63;48.16;101160.50;5023116;28;20022;-53
2022/11/19 05:51:16;;;;;;;4.57;4.07;;;;;;;17.69;48.23;101170.63;5023131;28;20118;-50
2022/11/19 05:53:42;;;;;;;3.90;3.50;;;;;;;17.68;48.45;101180.53;5023537;28;20553;-52
2022/11/19 05:56:07;;;;;;;4.22;3.65;;;;;;;17.68;48.32;101177.84;5023374;28;20061;-53
2022/11/19 05:58:33;;;;;;;4.20;3.80;;;;;;;17.64;48.34;101178.31;5023315;28;20060;-49
2022/11/19 06:00:58;;;;;;;4.93;3.85;;;;;;;17.69;48.05;101190.28;5023355;28;20196;-53
2022/11/19 06:03:24;;;;;;;4.32;3.92;;;;;;;17.64;48.09;101183.69;5022685;28;20030;-53
2022/11/19 06:05:49;;;;;;;5.45;3.97;;;;;;;17.66;48.21;101187.91;5022649;28;20068;-53
2022/11/19 06:08:15;;;;;;;5.05;4.07;;;;;;;17.69;48.03;101201.06;5020510;28;20021;-54
2022/11/19 06:10:40;;;;;;;5.32;4.00;;;;;;;17.71;48.16;101207.13;5022793;28;20505;-52
2022/11/19 06:13:05;;;;;;;4.10;3.67;;;;;;;17.71;48.36;101200.88;5022546;28;20034;-54
2022/11/19 06:15:30;;;;;;;5.78;4.47;;;;;;;17.66;48.20;101198.66;5022382;28;20683;-53
2022/11/19 06:17:56;;;;;;;4.15;3.75;;;;;;;17.72;47.95;101218.72;5022000;28;20123;-54
2022/11/19 06:20:21;;;;;;;4.38;3.97;;;;;;;17.70;48.43;101215.34;5022192;28;20026;-52
2022/11/19 06:22:46;;;;;;;4.13;3.72;;;;;;;17.74;48.01;101220.28;5021423;28;20030;-50
2022/11/19 06:25:12;;;;;;;4.85;3.55;;;;;;;17.74;48.32;101224.81;5022218;28;20057;-52
2022/11/19 06:27:38;;;;;;;4.15;3.70;;;;;;;17.66;48.20;101201.34;5022309;28;20025;-54
2022/11/19 06:30:04;;;;;;;4.00;3.60;;;;;;;17.68;48.31;101215.50;5022494;28;20076;-54
2022/11/19 06:32:30;;;;;;;5.00;3.92;;;;;;;17.76;49.14;101220.16;5021997;28;20060;-53
2022/11/19 06:34:55;;;;;;;4.50;3.88;;;;;;;17.77;48.50;101223.69;5022196;28;20026;-51
2022/11/19 06:37:20;;;;;;;4.88;3.70;;;;;;;17.78;48.39;101228.91;5021230;28;20057;-54
2022/11/19 06:39:45;;;;;;;4.47;3.80;;;;;;;17.67;48.29;101212.94;5021718;28;20494;-53
2022/11/19 06:44:55;;;;;;;6.65;3.67;;;;;;;17.79;48.31;101230.59;5022137;28;20132;-53
2022/11/19 06:47:20;;;;;;;6.88;3.80;;;;;;;17.75;48.43;101226.50;5022246;28;20034;-55
2022/11/19 06:49:45;;;;;;;5.40;3.85;;;;;;;17.80;48.38;101236.81;5021817;28;20054;-54
2022/11/19 06:52:10;;;;;;;4.18;3.78;;;;;;;17.80;48.51;101236.81;5003470;28;20120;-55
2022/11/19 06:54:36;;;;;;;4.43;3.88;;;;;;;17.78;48.42;101239.66;5021903;28;20088;-55
2022/11/19 06:57:01;;;;;;;4.75;4.07;;;;;;;17.79;48.31;101232.44;5022435;28;20029;-53
2022/11/19 06:59:27;;;;;;;5.30;3.80;;;;;;;17.81;48.46;101243.91;5021840;28;20599;-54
2022/11/19 07:01:52;;;;;;;4.40;3.83;;;;;;;17.82;48.70;101251.78;5022195;28;20029;-54
2022/11/19 07:04:17;;;;;;;4.55;3.80;;;;;;;17.82;48.30;101251.78;5021694;28;20433;-56
2022/11/19 07:06:43;;;;;;;4.43;3.83;;;;;;;17.85;48.22;101247.97;5021772;28;20037;-56
2022/11/19 07:09:08;;;;;;;4.38;3.97;;;;;;;17.85;48.49;101248.81;5003978;28;20076;-55
2022/11/19 07:11:34;;;;;;;4.03;3.63;;;;;;;17.88;48.25;101255.72;5021650;28;20120;-53
2022/11/19 07:14:01;;;;;;;5.00;4.30;;;;;;;17.88;48.11;101264.66;5021839;28;20030;-55
2022/11/19 07:16:29;;;;;;;5.72;3.72;;;;;;;17.88;48.13;101261.97;5004438;28;20053;-56
2022/11/19 07:18:59;;;;;;;4.72;4.05;;;;;;;17.86;48.29;101261.25;5018465;28;20026;-55
2022/11/19 07:21:24;;;;;;;5.78;4.25;;;;;;;17.82;48.25;101254.50;5003742;28;20085;-55
2022/11/19 07:23:50;;;;;;;4.65;3.80;;;;;;;17.92;48.16;101270.53;5021321;28;20093;-53
2022/11/19 07:26:15;;;;;;;5.80;3.53;;;;;;;17.92;48.09;101263.31;5021849;28;20022;-59
2022/11/19 07:28:40;;;;;;;5.25;3.72;;;;;;;17.87;48.29;101267.47;5014436;28;20037;-56
2022/11/19 07:31:06;;;;;;;3.63;3.25;;;;;;;17.92;48.43;101274.06;5015239;28;20094;-54
2022/11/19 07:33:32;;;;;;;4.38;3.97;;;;;;;17.94;48.17;101273.94;5017559;28;20368;-55
2022/11/19 07:35:57;;;;;;;4.68;4.13;;;;;;;17.93;48.47;101281.19;5024114;28;20056;-56
2022/11/19 07:38:22;;;;;;;4.38;3.65;;;;;;;17.98;48.34;101294.16;5024696;28;20025;-56
2022/11/19 07:40:52;;;;;;;4.25;3.50;;;;;;;17.99;48.17;101295.84;5024379;28;20065;-57
2022/11/19 07:43:17;;;;;;;4.47;3.58;;;;;;;17.99;48.24;101304.75;5025862;28;20080;-55
2022/11/19 07:45:43;;;;;;;4.90;3.53;;;;;;;17.97;48.34;101290.63;5024664;28;20040;-56
2022/11/19 07:48:08;;;;;;;5.15;3.75;;;;;;;18.01;48.25;101295.69;5007948;28;20017;-58
2022/11/19 07:50:33;;;;;;;4.22;3.83;;;;;;;18.04;48.56;101293.53;5025265;28;20022;-55
2022/11/19 07:52:59;;;;;;;4.63;3.60;;;;;;;18.05;48.11;101295.22;5024796;28;20097;-58
2022/11/19 07:55:24;;;;;;;4.68;4.20;;;;;;;18.06;48.43;101301.47;5024701;28;20049;-59
2022/11/19 07:57:52;;;;;;;4.72;3.83;;;;;;;17.91;48.33;101276.94;5025251;28;20022;-58
2022/11/19 08:00:17;;;;;;;7.05;4.32;;;;;;;18.08;47.96;101304.84;5024428;28;20384;-58
2022/11/19 08:02:42;;;;;;;4.15;3.75;;;;;;;18.09;47.87;101314.59;5022845;28;20106;-57
2022/11/19 08:05:08;;;;;;;4.13;3.72;;;;;;;18.12;47.72;101314.31;5021207;28;20030;-56
2022/11/19 08:07:36;;;;;;;4.18;3.78;;;;;;;18.07;47.38;101308.53;5025256;28;20029;-59
2022/11/19 08:10:01;;;;;;;4.32;3.70;;;;;;;18.16;47.10;101319.22;5020072;28;20165;-58
2022/11/19 08:12:28;;;;;;;4.55;4.07;;;;;;;18.16;47.42;101321.06;5024540;28;20471;-58
2022/11/19 08:14:53;;;;;;;5.15;4.50;;;;;;;18.18;47.17;101319.06;5017124;28;20034;-57
2022/11/19 08:20:02;;;;;;;3.92;3.53;;;;;;;18.24;46.55;101323.84;5023750;28;20036;-57
2022/11/19 08:22:28;;;;;;;4.88;3.90;;;;;;;18.27;46.80;101336.16;5020787;28;20046;-54
2022/11/19 08:24:53;;;;;;;4.47;4.07;;;;;;;18.28;46.79;101319.84;5024606;28;20129;-59
2022/11/19 08:27:19;;;;;;;6.95;4.20;;;;;;;18.33;46.96;101330.97;5011754;28;20030;-55
2022/11/19 08:29:44;;;;;;;4.80;3.67;;;;;;;18.36;46.78;101329.84;5007497;28;20089;-56
2022/11/19 08:32:09;;;;;;;3.63;3.33;;;;;;;18.39;46.78;101335.78;5024608;28;20034;-58
2022/11/19 08:34:34;;;;;;;3.80;3.47;;;;;;;18.37;46.79;101326.97;5024925;28;20030;-59
2022/11/19 08:37:00;;;;;;;3.80;3.40;;;;;;;18.43;46.48;101347.88;5020937;28;20053;-53
2022/11/19 08:39:25;;;;;;;5.53;3.80;;;;;;;18.46;46.41;101344.91;5005700;28;20025;-55
2022/11/19 08:44:34;;;;;;;4.88;4.13;;;;;;;18.51;46.43;101347.13;5024814;28;20088;-58
2022/11/19 08:46:59;;;;;;;4.75;3.92;;;;;;;18.53;46.37;101344.28;5019465;28;20022;-55
2022/11/19 08:49:25;;;;;;;3.95;3.50;;;;;;;18.56;46.34;101352.03;5005174;28;20023;-57
2022/11/19 08:51:51;;;;;;;4.57;3.92;;;;;;;18.54;46.16;101337.91;5004670;28;20026;-57
2022/11/19 08:54:16;;;;;;;4.38;3.85;;;;;;;18.33;46.26;101304.06;5005544;28;20086;-55
2022/11/19 08:56:41;;;;;;;4.40;3.88;;;;;;;18.61;45.78;101338.97;5005211;28;20022;-54
2022/11/19 08:59:07;;;;;;;3.92;3.55;;;;;;;18.63;45.91;101351.28;5008489;28;20026;-54
2022/11/19 09:01:32;;;;;;;4.82;3.70;;;;;;;18.63;46.23;101339.66;5023001;28;20021;-59
2022/11/19 09:03:57;;;;;;;3.97;3.45;;;;;;;18.64;45.80;101341.34;4999373;28;20036;-56
2022/11/19 09:06:23;;;;;;;5.18;3.55;;;;;;;18.66;45.83;101348.28;5023641;28;20117;-56
2022/11/19 09:08:48;;;;;;;5.57;4.03;;;;;;;18.66;45.82;101344.72;5023456;28;20511;-56
2022/11/19 09:11:16;;;;;;;4.55;3.75;;;;;;;18.67;46.22;101354.50;5022750;28;20376;-58
2022/11/19 09:13:41;;;;;;;4.93;3.45;;;;;;;18.68;45.89;101345.41;5024040;28;20089;-58
2022/11/19 09:16:08;;;;;;;5.40;3.17;;;;;;;18.67;45.55;101347.25;5022046;28;20485;-57
2022/11/19 09:18:37;;;;;;;3.75;3.35;;;;;;;18.63;45.98;101342.34;5023593;28;20109;-58
2022/11/19 09:21:03;;;;;;;4.20;3.80;;;;;;;18.65;45.58;101356.50;5022693;28;20056;-59
2022/11/19 09:23:28;;;;;;;4.90;3.65;;;;;;;18.63;45.65;101356.66;5023152;28;20046;-59
2022/11/19 09:26:00;;;;;;;3.90;3.50;;;;;;;18.63;45.84;101358.50;5023583;28;20101;-57
2022/11/19 09:28:26;;;;;;;3.67;3.30;;;;;;;18.60;45.84;101375.81;5023564;28;20041;-59
2022/11/19 09:30:57;;;;;;;5.38;3.83;;;;;;;18.60;45.93;101369.56;5022793;28;20034;-58
2022/11/19 09:33:22;;;;;;;3.72;3.40;;;;;;;18.60;45.49;101372.28;5023218;28;20030;-58
2022/11/19 09:35:47;;;;;;;4.28;3.63;;;;;;;18.57;45.68;101370.75;5023682;28;20017;-58
2022/11/19 09:38:12;;;;;;;4.47;3.53;;;;;;;18.56;45.89;101373.59;5023205;28;20030;-58
2022/11/19 09:40:43;;;;;;;5.07;3.92;;;;;;;18.56;45.55;101373.59;5004929;28;20375;-59
2022/11/19 09:43:16;;;;;;;4.15;3.13;;;;;;;18.55;46.00;101377.28;5022142;28;20051;-59
2022/11/19 09:46:02;;;;;;;4.30;3.83;;;;;;;18.54;45.84;101375.59;5022077;28;20029;-59
2022/11/19 09:48:32;;;;;;;4.45;3.78;;;;;;;18.53;45.85;101380.13;5021780;28;20030;-59
2022/11/19 09:51:02;;;;;;;3.40;3.10;;;;;;;18.54;45.91;101386.38;5021844;28;20032;-58
2022/11/19 09:53:49;;;;;;;5.38;3.28;;;;;;;18.52;45.64;101381.16;5022955;28;20049;-59
2022/11/19 09:56:20;;;;;;;3.53;3.22;;;;;;;18.53;45.63;101390.06;5022721;28;20055;-59
2022/11/19 09:58:46;;;;;;;4.03;3.35;;;;;;;18.52;45.61;101377.59;5021486;28;20066;-59
2022/11/19 10:01:16;;;;;;;3.22;2.85;;;;;;;18.50;45.64;101380.44;5023069;28;20049;-61
2022/11/19 10:03:46;;;;;;;3.72;3.30;;;;;;;18.53;45.96;101377.44;5022636;28;20021;-60
2022/11/19 10:06:14;;;;;;;3.75;3.20;;;;;;;18.54;45.78;101383.69;5021009;28;20567;-59
2022/11/19 10:08:56;;;;;;;3.55;3.08;;;;;;;18.54;45.90;101375.59;5022462;28;20046;-60
2022/11/19 10:11:48;;;;;;;3.45;2.80;;;;;;;18.54;45.59;101379.13;5005047;28;20574;-61
2022/11/19 10:14:41;;;;;;;4.15;3.47;;;;;;;18.55;45.68;101377.28;4999487;28;20110;-61
2022/11/19 10:17:27;;;;;;;3.58;3.28;;;;;;;18.54;45.81;101380.97;5022991;28;20024;-61
2022/11/19 10:20:24;;;;;;;4.88;3.50;;;;;;;18.54;45.88;101381.81;5005191;28;20034;-61
2022/11/19 10:23:02;;;;;;;4.07;3.00;;;;;;;18.54;45.68;101387.22;5022123;28;20057;-60
2022/11/19 10:25:31;;;;;;;3.28;2.95;;;;;;;18.48;45.55;101375.22;5005537;28;20042;-59
2022/11/19 10:28:14;;;;;;;3.78;3.05;;;;;;;18.54;45.81;101379.13;5004973;28;20042;-59
2022/11/19 10:30:47;;;;;;;3.47;2.67;;;;;;;18.53;45.46;101380.13;5022303;28;20034;-59
2022/11/19 10:33:17;;;;;;;3.35;2.88;;;;;;;18.53;45.46;101384.69;5005042;28;20026;-58
2022/11/19 10:35:46;;;;;;;3.90;2.92;;;;;;;18.54;45.61;101392.59;4988520;28;20449;-60
2022/11/19 10:38:20;;;;;;;4.05;3.17;;;;;;;18.54;45.66;101384.53;5004370;28;20033;-59
2022/11/19 10:40:58;;;;;;;3.20;2.90;;;;;;;18.55;45.97;101388.06;5004860;28;20033;-59
2022/11/19 10:43:40;;;;;;;3.92;3.25;;;;;;;18.56;45.60;101395.97;5004940;28;20040;-59
2022/11/19 10:46:08;;;;;;;3.35;3.00;;;;;;;18.45;45.68;101377.38;5005080;28;20038;-59
2022/11/19 10:48:45;;;;;;;3.70;3.13;;;;;;;18.57;45.56;101391.47;5004837;28;20033;-59
2022/11/19 10:51:23;;;;;;;3.40;2.70;;;;;;;18.55;45.56;101380.81;5004132;28;20032;-58
2022/11/19 10:53:50;;;;;;;3.28;2.97;;;;;;;18.57;45.88;101383.38;5022220;28;20029;-59
2022/11/19 10:56:21;;;;;;;3.00;2.67;;;;;;;18.58;45.57;101390.44;5022478;28;20034;-59
2022/11/19 10:58:57;;;;;;;3.20;2.90;;;;;;;18.59;45.65;101382.19;5004831;28;20057;-60
2022/11/19 11:01:29;;;;;;;3.33;2.75;;;;;;;18.59;45.56;101376.81;5004438;28;20026;-59
2022/11/19 11:04:06;;;;;;;3.30;2.95;;;;;;;18.59;45.29;101376.81;5004390;28;20541;-60
2022/11/19 11:06:56;;;;;;;3.92;3.08;;;;;;;18.59;45.55;101378.66;5003803;28;20029;-59
2022/11/19 11:09:30;;;;;;;4.38;2.92;;;;;;;18.58;45.59;101380.50;5001656;28;20110;-59
2022/11/19 11:14:53;;;;;;;4.15;2.90;;;;;;;18.34;45.89;101353.38;5026532;28;20037;-59
2022/11/19 11:17:30;;;;;;;2.97;2.65;;;;;;;18.53;45.70;101373.91;5008290;28;20823;-59
2022/11/19 11:20:00;;;;;;;3.80;3.15;;;;;;;18.52;45.79;101374.88;5008533;28;20045;-59
2022/11/19 11:22:26;;;;;;;3.08;2.78;;;;;;;18.51;46.13;101368.66;5025429;28;20046;-58
2022/11/19 11:24:51;;;;;;;3.17;2.88;;;;;;;18.48;46.04;101361.75;5008473;28;20073;-59
2022/11/19 11:27:24;;;;;;;3.45;2.83;;;;;;;18.53;46.05;101368.53;5008551;28;20038;-59
2022/11/19 11:30:14;;;;;;;3.10;2.80;;;;;;;18.54;45.87;101368.38;5026038;28;20040;-59
2022/11/19 11:32:40;;;;;;;2.90;2.60;;;;;;;18.55;45.88;101364.66;5025744;28;20042;-58
2022/11/19 11:35:07;;;;;;;2.63;2.40;;;;;;;18.50;46.04;101361.59;5007962;28;20100;-58
2022/11/19 11:37:32;;;;;;;2.92;2.63;;;;;;;18.55;45.79;101367.34;5003138;28;20041;-59
2022/11/19 11:39:58;;;;;;;3.75;3.15;;;;;;;18.55;46.10;101359.28;4995917;28;20038;-59
2022/11/19 11:42:26;;;;;;;2.65;2.40;;;;;;;18.57;46.12;101361.84;5025883;28;20046;-59
2022/11/19 11:44:54;;;;;;;3.30;2.67;;;;;;;18.57;46.06;101353.75;5025736;28;20026;-55
2022/11/19 11:47:22;;;;;;;3.42;3.13;;;;;;;18.57;46.08;101359.97;5008265;28;20030;-59
2022/11/19 11:49:56;;;;;;;2.95;2.65;;;;;;;18.52;46.06;101346.16;5025179;28;20018;-59
2022/11/19 11:52:40;;;;;;;2.55;2.22;;;;;;;18.59;46.00;101357.13;5024869;28;20029;-59